Mae Sot, Thailand
Current Conditions -  °F | °C
As of 6:00 PM on Friday 28 Nov 2014 (Local Time) from VTPP Reporting Station
Scattered Clouds Scattered Clouds  
Wind Chill: 86°   Ceiling: Unl
Heat Index: 92°   Visibility: 5mi
Dew Point: 72°   Wind: 0mph
Humidity: 62%   Direction: NA
Pressure: 29.77"   Gusts: NA
Location:  16.71°N, 98.57°E
Report Text: VTPP 281100Z 00000KT 8000 FEW023 SCT300 30/22 Q1008
Loading
Personal Weather Stations






























Interactive Weather Map New forecast layout! Learn more

10-Day Weather Forecast

Advertisements
Track Severe Weather on mobile